createdAt,value
2022-10-07T00:01:18.922Z,17.40
2022-10-07T00:03:47.406Z,17.41
2022-10-07T00:06:20.139Z,17.29
2022-10-07T00:08:50.554Z,17.32
2022-10-07T00:11:21.279Z,17.26
2022-10-07T00:13:53.996Z,17.27
2022-10-07T00:16:25.397Z,17.22
2022-10-07T00:18:56.562Z,17.30
2022-10-07T00:21:27.604Z,17.28
2022-10-07T00:23:56.912Z,17.33
2022-10-07T00:26:27.754Z,17.19
2022-10-07T00:28:56.195Z,17.15
2022-10-07T00:31:26.888Z,16.95
2022-10-07T00:33:56.300Z,16.90
2022-10-07T00:36:27.741Z,16.73
2022-10-07T00:38:57.859Z,16.73
2022-10-07T00:41:29.595Z,16.62
2022-10-07T00:44:00.237Z,16.60
2022-10-07T00:46:33.030Z,16.64
2022-10-07T00:49:04.856Z,16.62
2022-10-07T00:51:36.800Z,16.57
2022-10-07T00:54:09.317Z,16.57
2022-10-07T00:56:38.191Z,16.70
2022-10-07T00:59:07.186Z,16.75
2022-10-07T01:01:35.775Z,16.80
2022-10-07T01:04:04.786Z,16.62
2022-10-07T01:06:34.806Z,16.82
2022-10-07T01:09:03.295Z,16.61
2022-10-07T01:11:43.842Z,16.63
2022-10-07T01:14:23.967Z,16.50
2022-10-07T01:17:02.240Z,16.47
2022-10-07T01:19:52.244Z,16.52
2022-10-07T01:22:33.396Z,16.50
2022-10-07T01:25:26.629Z,16.50
2022-10-07T01:28:00.669Z,16.51
2022-10-07T01:30:33.154Z,16.47
2022-10-07T01:33:06.047Z,16.47
2022-10-07T01:35:37.981Z,16.43
2022-10-07T01:38:12.468Z,16.37
2022-10-07T01:40:46.107Z,16.29
2022-10-07T01:43:19.074Z,16.26
2022-10-07T01:45:49.145Z,16.17
2022-10-07T01:48:17.744Z,16.25
2022-10-07T01:50:48.541Z,16.20
2022-10-07T01:53:28.566Z,16.10
2022-10-07T01:56:12.955Z,16.06
2022-10-07T01:59:02.928Z,15.94
2022-10-07T02:01:41.140Z,15.97
2022-10-07T02:04:25.615Z,15.96
2022-10-07T02:07:03.028Z,16.04
2022-10-07T02:09:36.586Z,16.09
2022-10-07T02:12:14.012Z,16.06
2022-10-07T02:14:52.088Z,16.05
2022-10-07T02:17:22.920Z,15.93
2022-10-07T02:19:56.615Z,15.89
2022-10-07T02:22:28.964Z,15.88
2022-10-07T02:24:59.933Z,15.86
2022-10-07T02:27:35.322Z,15.97
2022-10-07T02:30:11.672Z,15.99
2022-10-07T02:32:45.946Z,16.09
2022-10-07T02:35:19.540Z,15.99
2022-10-07T02:37:50.758Z,15.91
2022-10-07T02:40:19.545Z,15.81
2022-10-07T02:42:56.644Z,15.68
2022-10-07T02:45:32.386Z,15.61
2022-10-07T02:48:05.896Z,15.61
2022-10-07T02:50:42.502Z,15.58
2022-10-07T02:53:13.816Z,15.45
2022-10-07T02:55:45.055Z,15.30
2022-10-07T02:58:18.785Z,15.28
2022-10-07T03:00:53.207Z,15.35
2022-10-07T03:03:23.586Z,15.41
2022-10-07T03:05:59.559Z,15.45
2022-10-07T03:08:29.254Z,15.53
2022-10-07T03:10:58.657Z,15.58
2022-10-07T03:13:27.213Z,15.59
2022-10-07T03:16:04.231Z,15.66
2022-10-07T03:18:33.313Z,15.64
2022-10-07T03:21:16.371Z,15.66
2022-10-07T03:23:45.761Z,15.69
2022-10-07T03:26:14.506Z,15.60
2022-10-07T03:28:43.480Z,15.65
2022-10-07T03:31:15.604Z,15.62
2022-10-07T03:33:49.143Z,15.50
2022-10-07T03:36:19.439Z,15.34
2022-10-07T03:38:49.122Z,15.22
2022-10-07T03:41:17.903Z,15.04
2022-10-07T03:43:47.045Z,14.98
2022-10-07T03:46:22.444Z,14.90
2022-10-07T03:48:52.458Z,14.92
2022-10-07T03:51:21.406Z,14.87
2022-10-07T03:53:50.002Z,14.99
2022-10-07T03:56:18.688Z,15.09
2022-10-07T03:58:47.218Z,15.01
2022-10-07T04:04:26.766Z,14.95
2022-10-07T04:06:55.868Z,14.94
2022-10-07T04:09:24.514Z,15.00
2022-10-07T04:11:53.026Z,15.01
2022-10-07T04:14:21.514Z,15.01
2022-10-07T04:16:50.547Z,15.03
2022-10-07T04:19:19.096Z,15.00
2022-10-07T04:21:49.438Z,14.91
2022-10-07T04:24:18.320Z,14.90
2022-10-07T04:26:47.035Z,14.87
2022-10-07T04:29:16.109Z,14.84
2022-10-07T04:31:45.040Z,14.99
2022-10-07T04:34:13.733Z,15.01
2022-10-07T04:36:44.121Z,14.89
2022-10-07T04:39:17.048Z,14.73
2022-10-07T04:41:59.018Z,14.65
2022-10-07T04:44:32.358Z,14.67
2022-10-07T04:47:07.822Z,14.63
2022-10-07T04:49:39.470Z,14.71
2022-10-07T04:52:10.533Z,14.70
2022-10-07T04:54:42.956Z,14.78
2022-10-07T04:57:13.688Z,14.81
2022-10-07T04:59:43.667Z,14.78
2022-10-07T05:02:16.075Z,14.77
2022-10-07T05:04:46.488Z,14.75
2022-10-07T05:07:15.002Z,14.78
2022-10-07T05:09:45.032Z,14.64
2022-10-07T05:12:17.854Z,14.61
2022-10-07T05:14:47.108Z,14.56
2022-10-07T05:17:16.911Z,14.46
2022-10-07T05:19:45.671Z,14.43
2022-10-07T05:22:14.501Z,14.29
2022-10-07T05:24:44.674Z,14.40
2022-10-07T05:27:15.004Z,14.43
2022-10-07T05:29:44.240Z,14.46
2022-10-07T05:32:12.728Z,14.46
2022-10-07T05:34:41.849Z,14.53
2022-10-07T05:37:10.606Z,14.51
2022-10-07T05:39:39.798Z,14.44
2022-10-07T05:42:16.716Z,14.43
2022-10-07T05:44:52.787Z,14.44
2022-10-07T05:47:22.083Z,14.39
2022-10-07T05:49:51.638Z,14.33
2022-10-07T05:52:21.321Z,14.32
2022-10-07T05:54:51.972Z,14.20
2022-10-07T05:57:23.073Z,14.23
2022-10-07T05:59:51.849Z,14.19
2022-10-07T06:02:21.483Z,14.12
2022-10-07T06:04:51.096Z,14.12
2022-10-07T06:07:23.487Z,14.09
2022-10-07T06:10:15.180Z,14.16
2022-10-07T06:13:02.259Z,14.19
2022-10-07T06:15:31.805Z,14.25
2022-10-07T06:18:00.558Z,14.24
2022-10-07T06:20:29.741Z,14.24
2022-10-07T06:22:59.693Z,14.19
2022-10-07T06:25:29.482Z,14.18
2022-10-07T06:28:01.367Z,14.15
2022-10-07T06:30:31.105Z,14.03
2022-10-07T06:33:02.383Z,13.98
2022-10-07T06:35:31.472Z,13.98
2022-10-07T06:38:00.225Z,13.98
2022-10-07T06:40:29.622Z,14.00
2022-10-07T06:42:58.092Z,14.11
2022-10-07T06:45:48.218Z,14.03
2022-10-07T06:48:17.735Z,14.09
2022-10-07T06:50:52.012Z,14.26
2022-10-07T06:53:22.080Z,14.19
2022-10-07T06:55:51.810Z,14.29
2022-10-07T06:58:22.519Z,14.30
2022-10-07T07:00:54.160Z,14.52
2022-10-07T07:03:24.016Z,14.48
2022-10-07T07:05:55.120Z,14.60
2022-10-07T07:08:29.337Z,14.66
2022-10-07T07:10:58.195Z,14.87
2022-10-07T07:13:26.874Z,14.95
2022-10-07T07:15:58.140Z,14.91
2022-10-07T07:18:29.154Z,15.18
2022-10-07T07:21:03.744Z,15.21
2022-10-07T07:23:34.119Z,15.32
2022-10-07T07:26:02.811Z,15.61
2022-10-07T07:28:31.594Z,15.89
2022-10-07T07:31:09.551Z,16.18
2022-10-07T07:33:38.905Z,16.19
2022-10-07T07:36:16.495Z,16.40
2022-10-07T07:38:53.280Z,16.50
2022-10-07T07:41:24.799Z,16.62
2022-10-07T07:43:55.393Z,16.96
2022-10-07T07:46:27.763Z,16.98
2022-10-07T07:48:58.662Z,17.19
2022-10-07T07:51:27.952Z,17.24
2022-10-07T07:53:57.418Z,17.78
2022-10-07T07:56:25.890Z,18.20
2022-10-07T07:58:55.061Z,18.34
2022-10-07T08:01:26.392Z,18.66
2022-10-07T08:03:55.335Z,18.92
2022-10-07T08:06:24.717Z,19.30
2022-10-07T08:08:53.524Z,19.53
2022-10-07T08:11:22.498Z,20.31
2022-10-07T08:13:51.893Z,21.65
2022-10-07T08:16:23.437Z,22.94
2022-10-07T08:18:55.185Z,24.55
2022-10-07T08:21:26.949Z,25.35
2022-10-07T08:23:59.980Z,24.88
2022-10-07T08:26:33.677Z,24.86
2022-10-07T08:29:04.443Z,25.75
2022-10-07T08:31:33.562Z,26.20
2022-10-07T08:34:05.076Z,27.11
2022-10-07T08:36:35.486Z,28.45
2022-10-07T08:39:05.739Z,29.56
2022-10-07T08:41:55.800Z,30.85
2022-10-07T08:44:29.661Z,31.13
2022-10-07T08:47:03.551Z,31.91
2022-10-07T08:49:38.507Z,32.63
2022-10-07T08:52:30.361Z,32.66
2022-10-07T08:55:00.170Z,32.61
2022-10-07T08:57:53.692Z,33.74
2022-10-07T09:00:25.011Z,33.99
2022-10-07T09:03:08.112Z,34.30
2022-10-07T09:05:42.762Z,34.69
2022-10-07T09:08:17.463Z,34.65
2022-10-07T09:10:50.070Z,34.81
2022-10-07T09:13:22.266Z,34.74
2022-10-07T09:16:17.120Z,35.02
2022-10-07T09:18:51.001Z,35.81
2022-10-07T09:21:25.643Z,35.40
2022-10-07T09:23:57.364Z,36.65
2022-10-07T09:26:28.089Z,36.76
2022-10-07T09:28:56.520Z,37.61
2022-10-07T09:31:26.426Z,37.98
2022-10-07T09:33:55.581Z,39.41
2022-10-07T09:36:26.289Z,38.84
2022-10-07T09:38:55.040Z,39.72
2022-10-07T09:41:31.441Z,39.39
2022-10-07T09:44:06.521Z,39.51
2022-10-07T09:46:42.104Z,38.68
2022-10-07T09:49:32.047Z,39.34
2022-10-07T09:52:03.293Z,39.42
2022-10-07T09:54:33.484Z,39.58
2022-10-07T09:57:04.704Z,40.80
2022-10-07T09:59:34.750Z,40.84
2022-10-07T10:02:16.444Z,41.07
2022-10-07T10:04:50.384Z,41.65
2022-10-07T10:07:23.293Z,40.92
2022-10-07T10:09:53.159Z,41.08
2022-10-07T10:12:23.661Z,41.32
2022-10-07T10:14:54.598Z,40.91
2022-10-07T10:17:30.044Z,40.61
2022-10-07T10:20:31.049Z,40.33
2022-10-07T10:23:26.112Z,40.26
2022-10-07T10:26:28.187Z,41.61
2022-10-07T10:29:12.140Z,42.03
2022-10-07T10:32:04.195Z,41.55
2022-10-07T10:34:41.197Z,41.35
2022-10-07T10:37:21.474Z,42.97
2022-10-07T10:40:04.034Z,43.63
2022-10-07T10:42:41.563Z,42.60
2022-10-07T10:45:35.369Z,43.10
2022-10-07T10:48:30.258Z,42.45
2022-10-07T10:51:10.528Z,43.56
2022-10-07T10:53:52.413Z,44.07
2022-10-07T10:56:34.423Z,43.81
2022-10-07T10:59:19.721Z,43.23
2022-10-07T11:01:55.461Z,43.46
2022-10-07T11:04:41.170Z,43.49
2022-10-07T11:07:20.750Z,42.40
2022-10-07T11:09:52.469Z,43.18
2022-10-07T11:12:27.856Z,42.82
2022-10-07T11:15:02.239Z,42.90
2022-10-07T11:17:33.502Z,43.65
2022-10-07T11:20:14.802Z,43.78
2022-10-07T11:22:50.810Z,43.26
2022-10-07T11:25:28.982Z,43.71
2022-10-07T11:28:08.981Z,43.57
2022-10-07T11:30:49.437Z,43.96
2022-10-07T11:33:27.217Z,43.86
2022-10-07T11:36:00.914Z,43.70
2022-10-07T11:38:33.989Z,43.36
2022-10-07T11:41:07.697Z,43.07
2022-10-07T11:43:44.792Z,44.64
2022-10-07T11:46:19.210Z,44.35
2022-10-07T11:48:50.490Z,43.88
2022-10-07T11:51:23.544Z,43.52
2022-10-07T11:53:55.293Z,43.73
2022-10-07T11:56:26.451Z,43.86
2022-10-07T11:59:01.852Z,43.32
2022-10-07T12:01:48.948Z,42.00
2022-10-07T12:04:38.330Z,42.63
2022-10-07T12:07:42.322Z,41.10
2022-10-07T12:10:23.384Z,41.63
2022-10-07T12:12:57.989Z,42.49
2022-10-07T12:15:34.009Z,42.44
2022-10-07T12:18:29.294Z,42.23
2022-10-07T12:21:08.039Z,42.20
2022-10-07T12:23:46.859Z,38.75
2022-10-07T12:26:51.749Z,38.51
2022-10-07T12:29:36.758Z,38.15
2022-10-07T12:32:45.393Z,36.56
2022-10-07T12:35:54.743Z,35.70
2022-10-07T12:38:30.059Z,34.82
2022-10-07T12:41:36.465Z,32.99
2022-10-07T12:44:18.440Z,33.21
2022-10-07T12:46:52.202Z,33.22
2022-10-07T12:49:28.263Z,32.28
2022-10-07T12:51:59.135Z,31.85
2022-10-07T12:54:33.571Z,31.38
2022-10-07T12:57:04.205Z,30.69
2022-10-07T12:59:49.833Z,31.07
2022-10-07T13:02:49.510Z,31.11
2022-10-07T13:05:52.789Z,31.35
2022-10-07T13:08:53.635Z,30.33
2022-10-07T13:11:48.027Z,29.62
2022-10-07T13:14:24.622Z,29.39
2022-10-07T13:17:00.603Z,29.89
2022-10-07T13:19:38.054Z,30.23
2022-10-07T13:22:14.786Z,30.35
2022-10-07T13:24:48.566Z,30.41
2022-10-07T13:27:21.729Z,30.30
2022-10-07T13:29:50.449Z,30.12
2022-10-07T13:32:24.324Z,30.20
2022-10-07T13:34:53.412Z,30.43
2022-10-07T13:37:32.618Z,30.25
2022-10-07T13:40:22.726Z,30.13
2022-10-07T13:42:55.808Z,30.35
2022-10-07T13:45:24.973Z,30.10
2022-10-07T13:47:53.744Z,30.37
2022-10-07T13:50:27.408Z,30.08
2022-10-07T13:52:58.693Z,29.81
2022-10-07T13:55:31.571Z,29.72
2022-10-07T13:58:03.110Z,29.78
2022-10-07T14:00:33.554Z,29.92
2022-10-07T14:03:02.337Z,29.58
2022-10-07T14:05:32.691Z,29.76
2022-10-07T14:08:15.214Z,29.75
2022-10-07T14:10:52.886Z,29.95
2022-10-07T14:13:21.485Z,29.98
2022-10-07T14:15:55.978Z,29.85
2022-10-07T14:18:25.431Z,29.72
2022-10-07T14:20:56.190Z,29.63
2022-10-07T14:23:31.503Z,29.62
2022-10-07T14:26:01.398Z,29.53
2022-10-07T14:28:31.814Z,29.36
2022-10-07T14:31:35.150Z,29.51
2022-10-07T14:34:30.897Z,29.27
2022-10-07T14:37:08.303Z,29.05
2022-10-07T14:39:39.831Z,29.00
2022-10-07T14:42:13.369Z,28.99
2022-10-07T14:44:44.165Z,28.91
2022-10-07T14:47:14.974Z,28.85
2022-10-07T14:49:43.524Z,28.78
2022-10-07T14:52:18.296Z,28.75
2022-10-07T14:54:48.887Z,28.79
2022-10-07T14:57:17.336Z,28.92
2022-10-07T14:59:47.793Z,28.91
2022-10-07T15:02:16.752Z,28.81
2022-10-07T15:04:45.571Z,28.79
2022-10-07T15:07:15.331Z,28.70
2022-10-07T15:09:45.002Z,28.61
2022-10-07T15:12:17.206Z,28.49
2022-10-07T15:14:45.694Z,28.31
2022-10-07T15:17:14.459Z,28.11
2022-10-07T15:19:43.116Z,27.89
2022-10-07T15:22:11.606Z,27.96
2022-10-07T15:24:40.069Z,27.91
2022-10-07T15:27:10.061Z,27.94
2022-10-07T15:29:40.201Z,27.96
2022-10-07T15:32:09.452Z,27.92
2022-10-07T15:34:38.076Z,27.96
2022-10-07T15:37:06.558Z,27.95
2022-10-07T15:39:39.474Z,28.10
2022-10-07T15:42:09.244Z,27.97
2022-10-07T15:44:37.708Z,28.00
2022-10-07T15:47:07.721Z,28.05
2022-10-07T15:49:36.540Z,27.96
2022-10-07T15:52:05.024Z,27.95
2022-10-07T15:54:33.657Z,27.99
2022-10-07T15:57:02.370Z,27.77
2022-10-07T15:59:31.029Z,27.86
2022-10-07T16:01:59.797Z,27.84
2022-10-07T16:04:30.125Z,27.53
2022-10-07T16:06:58.615Z,27.63
2022-10-07T16:09:27.226Z,27.58
2022-10-07T16:11:55.683Z,27.45
2022-10-07T16:14:24.132Z,27.36
2022-10-07T16:16:52.559Z,27.48
2022-10-07T16:19:21.161Z,27.41
2022-10-07T16:21:50.997Z,27.44
2022-10-07T16:24:21.041Z,27.38
2022-10-07T16:26:51.594Z,27.50
2022-10-07T16:29:38.900Z,27.49
2022-10-07T16:32:10.818Z,27.24
2022-10-07T16:34:43.395Z,27.27
2022-10-07T16:37:15.000Z,27.23
2022-10-07T16:39:43.733Z,27.23
2022-10-07T16:42:12.310Z,27.20
2022-10-07T16:44:40.818Z,27.21
2022-10-07T16:47:09.432Z,27.17
2022-10-07T16:49:37.850Z,27.11
2022-10-07T16:52:06.572Z,27.03
2022-10-07T16:54:36.486Z,27.03
2022-10-07T16:57:05.327Z,26.90
2022-10-07T16:59:33.779Z,26.79
2022-10-07T17:02:05.123Z,26.62
2022-10-07T17:04:33.778Z,26.44
2022-10-07T17:07:02.253Z,26.26
2022-10-07T17:09:30.805Z,26.01
2022-10-07T17:12:00.614Z,25.80
2022-10-07T17:14:31.745Z,25.57
2022-10-07T17:17:00.615Z,25.43
2022-10-07T17:19:29.958Z,25.28
2022-10-07T17:21:59.788Z,25.14
2022-10-07T17:24:28.487Z,25.14
2022-10-07T17:26:56.950Z,24.97
2022-10-07T17:29:27.233Z,24.88
2022-10-07T17:31:56.165Z,24.68
2022-10-07T17:34:24.614Z,24.60
2022-10-07T17:36:54.330Z,24.45
2022-10-07T17:39:23.110Z,24.36
2022-10-07T17:41:51.570Z,24.21
2022-10-07T17:44:21.596Z,24.09
2022-10-07T17:46:51.676Z,23.93
2022-10-07T17:49:20.831Z,23.87
2022-10-07T17:51:49.322Z,23.82
2022-10-07T17:54:17.887Z,23.74
2022-10-07T17:56:47.905Z,23.63
2022-10-07T17:59:16.954Z,23.55
2022-10-07T18:01:45.760Z,23.32
2022-10-07T18:04:23.721Z,23.12
2022-10-07T18:06:53.204Z,22.99
2022-10-07T18:09:24.308Z,22.85
2022-10-07T18:12:10.135Z,22.76
2022-10-07T18:15:07.916Z,22.74
2022-10-07T18:17:36.911Z,22.57
2022-10-07T18:20:11.483Z,22.54
2022-10-07T18:22:44.218Z,22.40
2022-10-07T18:25:13.137Z,22.25
2022-10-07T18:27:44.941Z,22.20
2022-10-07T18:30:13.994Z,22.16
2022-10-07T18:32:42.692Z,22.06
2022-10-07T18:35:12.953Z,21.97
2022-10-07T18:37:41.736Z,21.90
2022-10-07T18:40:11.541Z,21.81
2022-10-07T18:42:39.996Z,21.77
2022-10-07T18:45:09.634Z,21.70
2022-10-07T18:47:38.076Z,21.64
2022-10-07T18:52:36.525Z,21.44
2022-10-07T18:55:05.290Z,21.39
2022-10-07T18:57:34.201Z,21.12
2022-10-07T19:00:02.688Z,21.27
2022-10-07T19:02:31.115Z,21.23
2022-10-07T19:04:59.538Z,21.14
2022-10-07T19:07:29.084Z,21.03
2022-10-07T19:09:59.002Z,21.04
2022-10-07T19:12:44.947Z,20.88
2022-10-07T19:15:13.389Z,20.91
2022-10-07T19:17:41.894Z,20.81
2022-10-07T19:20:11.934Z,20.77
2022-10-07T19:22:40.386Z,20.61
2022-10-07T19:25:42.661Z,20.52
2022-10-07T19:28:11.359Z,20.46
2022-10-07T19:30:42.193Z,20.38
2022-10-07T19:33:11.333Z,20.35
2022-10-07T19:35:40.176Z,20.30
2022-10-07T19:38:09.505Z,20.31
2022-10-07T19:40:43.605Z,20.26
2022-10-07T19:43:12.774Z,20.24
2022-10-07T19:45:42.558Z,20.11
2022-10-07T19:48:14.472Z,19.93
2022-10-07T19:50:43.199Z,19.85
2022-10-07T19:53:11.661Z,19.84
2022-10-07T19:55:45.910Z,19.84
2022-10-07T19:58:14.333Z,19.78
2022-10-07T20:00:42.775Z,19.73
2022-10-07T20:03:11.234Z,19.74
2022-10-07T20:05:41.219Z,19.71
2022-10-07T20:08:10.373Z,19.39
2022-10-07T20:10:39.734Z,19.32
2022-10-07T20:13:09.561Z,19.32
2022-10-07T20:15:38.250Z,19.32
2022-10-07T20:18:09.062Z,19.31
2022-10-07T20:20:37.510Z,19.22
2022-10-07T20:23:06.354Z,19.10
2022-10-07T20:25:35.070Z,18.98
2022-10-07T20:28:03.661Z,19.06
2022-10-07T20:30:35.769Z,19.02
2022-10-07T20:33:04.605Z,19.07
2022-10-07T20:35:34.876Z,19.03
2022-10-07T20:38:03.358Z,18.99
2022-10-07T20:40:49.751Z,18.94
2022-10-07T20:43:18.271Z,18.84
2022-10-07T20:46:00.044Z,18.69
2022-10-07T20:48:31.677Z,18.70
2022-10-07T20:51:08.408Z,18.57
2022-10-07T20:53:37.004Z,18.56
2022-10-07T20:56:05.643Z,18.51
2022-10-07T20:58:35.186Z,18.46
2022-10-07T21:01:09.887Z,18.44
2022-10-07T21:03:39.355Z,18.22
2022-10-07T21:06:08.426Z,17.87
2022-10-07T21:08:36.889Z,17.71
2022-10-07T21:11:06.587Z,17.65
2022-10-07T21:13:35.009Z,17.74
2022-10-07T21:16:07.669Z,17.81
2022-10-07T21:18:36.293Z,17.88
2022-10-07T21:21:04.869Z,18.02
2022-10-07T21:23:33.322Z,18.05
2022-10-07T21:26:03.671Z,18.12
2022-10-07T21:28:34.183Z,18.09
2022-10-07T21:31:03.274Z,18.05
2022-10-07T21:33:33.696Z,17.98
2022-10-07T21:36:03.032Z,17.91
2022-10-07T21:38:32.450Z,17.82
2022-10-07T21:41:02.075Z,17.71
2022-10-07T21:43:31.008Z,17.51
2022-10-07T21:46:00.241Z,17.42
2022-10-07T21:48:30.347Z,17.37
2022-10-07T21:51:05.748Z,17.51
2022-10-07T21:53:37.292Z,17.43
2022-10-07T21:56:06.403Z,17.36
2022-10-07T21:58:35.969Z,17.30
2022-10-07T22:01:05.257Z,17.05
2022-10-07T22:03:33.741Z,16.92
2022-10-07T22:06:04.115Z,16.82
2022-10-07T22:08:37.462Z,16.87
2022-10-07T22:11:09.418Z,16.92
2022-10-07T22:13:40.083Z,16.96
2022-10-07T22:16:12.448Z,16.95
2022-10-07T22:18:41.724Z,16.98
2022-10-07T22:21:14.458Z,17.06
2022-10-07T22:23:43.399Z,16.96
2022-10-07T22:26:14.169Z,16.79
2022-10-07T22:28:42.953Z,16.56
2022-10-07T22:31:12.110Z,16.53
2022-10-07T22:33:41.331Z,16.46
2022-10-07T22:36:13.732Z,16.54
2022-10-07T22:38:42.249Z,16.42
2022-10-07T22:41:13.929Z,16.54
2022-10-07T22:43:44.345Z,16.62
2022-10-07T22:46:13.878Z,16.67
2022-10-07T22:48:43.358Z,16.73
2022-10-07T22:51:14.873Z,16.65
2022-10-07T22:53:47.974Z,16.50
2022-10-07T22:56:18.772Z,16.45
2022-10-07T22:58:51.836Z,16.43
2022-10-07T23:01:21.025Z,16.09
2022-10-07T23:03:49.808Z,15.93
2022-10-07T23:06:20.663Z,15.91
2022-10-07T23:08:49.666Z,15.93
2022-10-07T23:11:23.923Z,15.96
2022-10-07T23:13:52.964Z,15.81
2022-10-07T23:16:23.269Z,15.94
2022-10-07T23:18:53.727Z,15.99
2022-10-07T23:21:25.293Z,16.04
2022-10-07T23:23:56.810Z,15.86
2022-10-07T23:26:27.623Z,15.79
2022-10-07T23:28:58.214Z,15.73
2022-10-07T23:31:28.680Z,15.81
2022-10-07T23:33:58.477Z,15.86
2022-10-07T23:36:28.973Z,15.89
2022-10-07T23:38:59.790Z,15.76
2022-10-07T23:41:29.929Z,15.78
2022-10-07T23:44:00.507Z,15.77
2022-10-07T23:46:33.083Z,15.75
2022-10-07T23:49:01.967Z,15.97
2022-10-07T23:51:32.418Z,15.88
2022-10-07T23:54:02.198Z,15.85
2022-10-07T23:56:31.152Z,15.81
2022-10-07T23:59:00.651Z,15.76
